sensor_id;sensor_type;location;lat;lon;timestamp;P1;durP1;ratioP1;P2;durP2;ratioP2
57335;SDS011;43171;50.994;18.204;2022-08-23T00:01:17;12.20;;;8.40;;
57335;SDS011;43171;50.994;18.204;2022-08-23T00:03:49;12.20;;;8.60;;
57335;SDS011;43171;50.994;18.204;2022-08-23T00:06:16;11.00;;;8.60;;
57335;SDS011;43171;50.994;18.204;2022-08-23T00:08:42;12.90;;;8.60;;
57335;SDS011;43171;50.994;18.204;2022-08-23T00:11:23;10.40;;;7.80;;
57335;SDS011;43171;50.994;18.204;2022-08-23T00:13:58;11.80;;;8.50;;
57335;SDS011;43171;50.994;18.204;2022-08-23T00:16:25;11.10;;;8.90;;
57335;SDS011;43171;50.994;18.204;2022-08-23T00:18:51;11.80;;;8.90;;
57335;SDS011;43171;50.994;18.204;2022-08-23T00:21:16;13.10;;;9.60;;
57335;SDS011;43171;50.994;18.204;2022-08-23T00:23:42;12.10;;;8.90;;
57335;SDS011;43171;50.994;18.204;2022-08-23T00:26:08;11.60;;;8.70;;
57335;SDS011;43171;50.994;18.204;2022-08-23T00:28:34;10.80;;;9.00;;
57335;SDS011;43171;50.994;18.204;2022-08-23T00:30:59;14.30;;;9.40;;
57335;SDS011;43171;50.994;18.204;2022-08-23T00:33:25;12.00;;;8.80;;
57335;SDS011;43171;50.994;18.204;2022-08-23T00:35:50;12.80;;;9.10;;
57335;SDS011;43171;50.994;18.204;2022-08-23T00:38:16;12.80;;;8.20;;
57335;SDS011;43171;50.994;18.204;2022-08-23T00:40:46;11.60;;;8.50;;
57335;SDS011;43171;50.994;18.204;2022-08-23T00:43:16;10.50;;;8.20;;
57335;SDS011;43171;50.994;18.204;2022-08-23T00:46:04;13.70;;;8.70;;
57335;SDS011;43171;50.994;18.204;2022-08-23T00:48:50;10.10;;;8.40;;
57335;SDS011;43171;50.994;18.204;2022-08-23T00:51:21;12.60;;;8.40;;
57335;SDS011;43171;50.994;18.204;2022-08-23T00:53:51;12.90;;;9.10;;
57335;SDS011;43171;50.994;18.204;2022-08-23T00:56:20;11.90;;;9.10;;
57335;SDS011;43171;50.994;18.204;2022-08-23T00:58:47;12.70;;;9.10;;
57335;SDS011;43171;50.994;18.204;2022-08-23T01:01:13;11.20;;;9.10;;
57335;SDS011;43171;50.994;18.204;2022-08-23T01:03:40;12.80;;;9.60;;
57335;SDS011;43171;50.994;18.204;2022-08-23T01:08:45;10.90;;;9.30;;
57335;SDS011;43171;50.994;18.204;2022-08-23T01:11:19;12.60;;;9.40;;
57335;SDS011;43171;50.994;18.204;2022-08-23T01:13:54;12.00;;;9.40;;
57335;SDS011;43171;50.994;18.204;2022-08-23T01:16:28;13.80;;;9.50;;
57335;SDS011;43171;50.994;18.204;2022-08-23T01:19:02;13.90;;;10.10;;
57335;SDS011;43171;50.994;18.204;2022-08-23T01:21:38;12.20;;;9.10;;
57335;SDS011;43171;50.994;18.204;2022-08-23T01:24:06;11.60;;;9.40;;
57335;SDS011;43171;50.994;18.204;2022-08-23T01:26:32;12.00;;;9.40;;
57335;SDS011;43171;50.994;18.204;2022-08-23T01:29:00;10.90;;;9.00;;
57335;SDS011;43171;50.994;18.204;2022-08-23T01:31:27;13.50;;;10.00;;
57335;SDS011;43171;50.994;18.204;2022-08-23T01:33:56;12.50;;;9.30;;
57335;SDS011;43171;50.994;18.204;2022-08-23T01:36:24;13.20;;;9.80;;
57335;SDS011;43171;50.994;18.204;2022-08-23T01:38:50;13.00;;;9.50;;
57335;SDS011;43171;50.994;18.204;2022-08-23T01:41:16;11.10;;;9.10;;
57335;SDS011;43171;50.994;18.204;2022-08-23T01:43:41;9.50;;;8.40;;
57335;SDS011;43171;50.994;18.204;2022-08-23T01:46:08;11.80;;;8.50;;
57335;SDS011;43171;50.994;18.204;2022-08-23T01:48:35;10.10;;;8.30;;
57335;SDS011;43171;50.994;18.204;2022-08-23T01:51:01;10.80;;;8.60;;
57335;SDS011;43171;50.994;18.204;2022-08-23T01:53:27;9.30;;;7.90;;
57335;SDS011;43171;50.994;18.204;2022-08-23T01:55:53;8.70;;;7.70;;
57335;SDS011;43171;50.994;18.204;2022-08-23T01:58:19;12.10;;;8.00;;
57335;SDS011;43171;50.994;18.204;2022-08-23T02:00:44;11.50;;;8.00;;
57335;SDS011;43171;50.994;18.204;2022-08-23T02:03:10;10.30;;;7.90;;
57335;SDS011;43171;50.994;18.204;2022-08-23T02:05:37;8.10;;;7.30;;
57335;SDS011;43171;50.994;18.204;2022-08-23T02:08:05;10.00;;;7.60;;
57335;SDS011;43171;50.994;18.204;2022-08-23T02:10:49;8.50;;;7.40;;
57335;SDS011;43171;50.994;18.204;2022-08-23T02:13:15;8.90;;;7.20;;
57335;SDS011;43171;50.994;18.204;2022-08-23T02:15:44;8.70;;;7.20;;
57335;SDS011;43171;50.994;18.204;2022-08-23T02:18:11;10.10;;;7.50;;
57335;SDS011;43171;50.994;18.204;2022-08-23T02:20:42;10.30;;;7.30;;
57335;SDS011;43171;50.994;18.204;2022-08-23T02:23:09;9.50;;;7.40;;
57335;SDS011;43171;50.994;18.204;2022-08-23T02:25:35;10.30;;;7.40;;
57335;SDS011;43171;50.994;18.204;2022-08-23T02:28:02;12.30;;;7.80;;
57335;SDS011;43171;50.994;18.204;2022-08-23T02:30:28;9.00;;;7.30;;
57335;SDS011;43171;50.994;18.204;2022-08-23T02:32:54;9.00;;;7.50;;
57335;SDS011;43171;50.994;18.204;2022-08-23T02:35:21;8.90;;;7.30;;
57335;SDS011;43171;50.994;18.204;2022-08-23T02:37:47;11.50;;;7.80;;
57335;SDS011;43171;50.994;18.204;2022-08-23T02:40:13;11.70;;;8.30;;
57335;SDS011;43171;50.994;18.204;2022-08-23T02:42:39;9.70;;;7.60;;
57335;SDS011;43171;50.994;18.204;2022-08-23T02:45:06;10.50;;;8.20;;
57335;SDS011;43171;50.994;18.204;2022-08-23T02:47:33;11.00;;;8.30;;
57335;SDS011;43171;50.994;18.204;2022-08-23T02:50:02;9.40;;;8.00;;
57335;SDS011;43171;50.994;18.204;2022-08-23T02:52:29;10.70;;;8.10;;
57335;SDS011;43171;50.994;18.204;2022-08-23T02:54:54;10.20;;;8.30;;
57335;SDS011;43171;50.994;18.204;2022-08-23T02:57:20;12.30;;;8.50;;
57335;SDS011;43171;50.994;18.204;2022-08-23T02:59:45;10.80;;;8.40;;
